Time;durP1;ratioP1;P1;durP2;ratioP2;P2;SDS_P1;SDS_P2;PMS_P1;PMS_P2;Temp;Humidity;BMP_temperature;BMP_pressure;BME280_temperature;BME280_humidity;BME280_pressure;Samples;Min_cycle;Max_cycle;Signal;HPM_P1;HPM_P2
2022/08/11 00:06:54;;;;;;;3.90;3.30;;;;;;;12.51;69.40;100359.16;431164;1273;142682;-62
2022/08/11 00:17:02;;;;;;;6.10;3.50;;;;;;;12.37;69.40;100357.84;430917;1272;141675;-62
2022/08/11 00:27:09;;;;;;;4.20;3.30;;;;;;;12.26;69.86;100356.55;430991;1272;141681;-62
2022/08/11 00:37:22;;;;;;;4.40;3.40;;;;;;;12.18;70.23;100357.21;431709;1272;197161;-63
2022/08/11 00:47:43;;;;;;;8.10;3.40;;;;;;;12.13;70.47;100359.27;430895;1273;148297;-62
2022/08/11 00:58:19;;;;;;;6.50;3.80;;;;;;;12.00;70.66;100361.05;430631;1273;147709;-63
2022/08/11 01:09:01;;;;;;;7.80;3.80;;;;;;;11.90;70.97;100360.91;429309;1273;142210;-64
2022/08/11 01:19:46;;;;;;;4.50;3.10;;;;;;;11.78;71.25;100355.92;433221;1273;142491;-62
2022/08/11 01:30:57;;;;;;;5.30;3.40;;;;;;;11.69;71.34;100361.55;430654;1273;142520;-61
2022/08/11 01:52:18;;;;;;;5.20;3.40;;;;;;;11.51;71.83;100357.44;430831;1272;142052;-61
2022/08/11 02:02:46;;;;;;;5.50;2.90;;;;;;;11.42;71.89;100361.46;432728;1272;142071;-64
2022/08/11 02:12:55;;;;;;;4.90;4.30;;;;;;;11.34;72.27;100364.52;431360;1272;142549;-61
2022/08/11 02:33:57;;;;;;;4.90;3.40;;;;;;;11.12;72.79;100360.41;431112;1273;141799;-63
2022/08/11 02:44:17;;;;;;;3.40;3.00;;;;;;;11.02;73.12;100358.34;429846;1273;143553;-62
2022/08/11 02:54:29;;;;;;;4.30;3.30;;;;;;;10.89;73.10;100358.46;431081;1272;142269;-64
2022/08/11 03:04:50;;;;;;;7.90;4.20;;;;;;;10.81;73.26;100355.59;431328;1272;143150;-62
2022/08/11 03:25:31;;;;;;;4.50;3.70;;;;;;;10.78;73.83;100345.77;430977;1273;142525;-63
2022/08/11 03:35:45;;;;;;;5.30;3.70;;;;;;;10.80;73.50;100352.66;432893;1271;141850;-64
2022/08/11 03:46:01;;;;;;;5.90;4.20;;;;;;;10.92;73.83;100356.20;431142;1273;142791;-63
2022/08/11 03:56:22;;;;;;;12.70;5.10;;;;;;;11.12;73.65;100353.26;430680;1271;141084;-63
2022/08/11 04:06:50;;;;;;;10.90;4.30;;;;;;;11.37;73.56;100354.72;430494;1271;146413;-62
2022/08/11 04:17:19;;;;;;;9.40;4.60;;;;;;;11.66;73.38;100356.42;431378;1273;141121;-63
2022/08/11 04:27:47;;;;;;;10.90;5.40;;;;;;;12.09;73.10;100363.30;435094;1272;141629;-62
2022/08/11 04:38:36;;;;;;;18.90;6.30;;;;;;;12.66;73.06;100370.05;430380;1271;143022;-62
2022/08/11 05:10:41;;;;;;;9.50;3.40;;;;;;;15.58;71.26;100377.27;430146;1271;143108;-62
2022/08/11 06:02:49;;;;;;;4.70;1.70;;;;;;;43.95;26.41;100363.36;447147;1272;141433;-61
2022/08/11 06:12:59;;;;;;;5.40;2.00;;;;;;;45.17;23.34;100365.55;433112;1273;141646;-61
2022/08/11 06:23:08;;;;;;;4.40;1.70;;;;;;;44.39;21.22;100362.88;430231;1272;140976;-61
2022/08/11 06:33:17;;;;;;;5.70;1.80;;;;;;;43.77;21.00;100362.52;431104;1273;1284524;-61
2022/08/11 06:43:27;;;;;;;12.40;1.80;;;;;;;44.50;20.04;100360.98;430307;1272;144623;-63
2022/08/11 06:53:35;;;;;;;3.00;1.30;;;;;;;43.46;19.74;100363.29;431576;1271;141193;-61
2022/08/11 07:03:46;;;;;;;2.00;1.10;;;;;;;41.11;19.92;100354.27;431426;1272;141418;-62
2022/08/11 07:35:12;;;;;;;2.80;2.10;;;;;;;47.74;16.53;100350.39;432674;1272;127663;-61
2022/08/11 07:55:48;;;;;;;4.90;4.40;;;;;;;50.23;14.83;100338.73;430100;1271;141456;-62
2022/08/11 08:27:07;;;;;;;4.80;0.90;;;;;;;44.35;15.35;100339.16;432300;1270;141385;-61
2022/08/11 08:37:14;;;;;;;1.60;0.70;;;;;;;34.70;20.85;100343.11;430669;1273;140898;-61
2022/08/11 08:47:46;;;;;;;2.40;0.90;;;;;;;30.54;25.44;100353.63;431413;1270;142053;-62
2022/08/11 08:58:00;;;;;;;2.40;0.90;;;;;;;28.59;28.03;100352.41;430605;1273;143019;-61
2022/08/11 09:08:06;;;;;;;3.50;1.00;;;;;;;27.30;30.13;100346.14;430878;1272;140432;-63
2022/08/11 09:18:13;;;;;;;2.30;1.00;;;;;;;26.50;31.52;100345.20;435768;1271;144495;-61
2022/08/11 09:28:21;;;;;;;5.00;1.00;;;;;;;26.56;32.17;100337.94;431467;1271;141266;-61
2022/08/11 09:48:57;;;;;;;3.80;1.30;;;;;;;26.16;32.18;100331.52;430790;1272;145004;-61
2022/08/11 09:59:05;;;;;;;2.60;1.00;;;;;;;26.12;32.58;100329.21;430890;1273;140998;-62
2022/08/11 10:09:13;;;;;;;1.20;0.60;;;;;;;25.66;33.65;100317.39;431122;1272;140962;-61
2022/08/11 10:19:20;;;;;;;3.70;1.00;;;;;;;26.12;33.16;100310.23;432116;1271;142159;-62
2022/08/11 10:40:17;;;;;;;1.30;0.40;;;;;;;25.26;34.34;100295.94;429802;1273;146277;-63
2022/08/11 11:00:48;;;;;;;2.00;1.10;;;;;;;24.98;34.60;100277.91;431638;1273;141775;-61
2022/08/11 11:10:55;;;;;;;6.90;1.10;;;;;;;25.18;35.27;100265.73;432378;1271;142193;-63
2022/08/11 11:21:06;;;;;;;4.50;1.20;;;;;;;24.89;35.18;100261.84;431725;1272;145925;-62
2022/08/11 11:31:24;;;;;;;4.90;1.50;;;;;;;24.24;35.67;100246.52;432377;1271;145645;-62
2022/08/11 11:41:31;;;;;;;2.50;0.50;;;;;;;23.91;36.61;100230.50;430234;1272;142081;-62
2022/08/11 11:51:38;;;;;;;2.90;1.30;;;;;;;24.31;36.21;100203.58;430921;1271;144942;-61
2022/08/11 12:01:47;;;;;;;1.90;1.30;;;;;;;24.61;35.94;100192.34;432031;1272;142637;-63
2022/08/11 12:32:47;;;;;;;2.70;1.20;;;;;;;24.57;36.70;100170.59;430190;1271;144820;-61
2022/08/11 12:53:31;;;;;;;14.40;2.00;;;;;;;25.01;35.33;100152.86;431228;1273;147556;-63
2022/08/11 13:14:03;;;;;;;2.90;0.90;;;;;;;24.56;35.85;100138.45;430009;1271;143258;-61
2022/08/11 13:24:09;;;;;;;0.50;0.40;;;;;;;24.98;35.25;100131.73;431038;1272;142412;-63
2022/08/11 13:34:17;;;;;;;6.10;1.10;;;;;;;25.24;34.35;100132.67;431283;1272;144075;-61
2022/08/11 13:44:26;;;;;;;1.40;0.80;;;;;;;24.54;35.96;100163.89;431202;1271;142614;-60
2022/08/11 13:54:37;;;;;;;12.10;1.40;;;;;;;22.30;43.17;100204.21;431320;1272;141065;-61
2022/08/11 14:04:45;;;;;;;1.50;0.70;;;;;;;19.61;51.78;100223.54;431742;1273;145769;-64
2022/08/11 14:15:02;;;;;;;3.80;1.40;;;;;;;18.64;54.08;100243.33;431878;1273;141768;-61
2022/08/11 14:25:15;;;;;;;2.10;0.90;;;;;;;18.17;57.05;100221.15;446772;1272;142020;-62
2022/08/11 14:35:21;;;;;;;1.90;1.50;;;;;;;18.33;58.27;100219.77;446302;1272;143755;-62
2022/08/11 15:06:28;;;;;;;3.40;2.70;;;;;;;19.67;61.15;100188.88;433062;1272;142547;-61
2022/08/11 15:37:41;;;;;;;4.10;1.50;;;;;;;20.12;59.91;100203.08;431082;1274;142668;-63
2022/08/11 15:47:56;;;;;;;1.40;1.30;;;;;;;20.56;58.65;100202.44;432264;1273;146066;-61
2022/08/11 16:08:37;;;;;;;1.60;0.80;;;;;;;20.95;56.43;100194.27;438676;1272;144417;-61
2022/08/11 16:18:48;;;;;;;3.20;0.60;;;;;;;20.82;55.91;100181.83;444277;1271;154043;-62
2022/08/11 16:28:58;;;;;;;2.30;0.70;;;;;;;20.66;55.03;100161.63;433657;1272;144653;-61
2022/08/11 16:39:06;;;;;;;2.90;1.10;;;;;;;20.47;53.82;100152.67;432634;1273;144969;-62
2022/08/11 16:49:17;;;;;;;2.40;0.40;;;;;;;20.08;53.50;100141.25;432178;1273;145478;-63
2022/08/11 16:59:29;;;;;;;11.20;2.60;;;;;;;19.73;54.08;100133.65;432485;1273;142199;-62
2022/08/11 17:20:06;;;;;;;4.20;1.60;;;;;;;19.08;55.64;100126.83;436641;1272;144154;-62
2022/08/11 18:03:28;;;;;;;7.90;2.10;;;;;;;17.68;62.36;100119.92;446267;1271;143794;-62
